Time;durP1;ratioP1;P1;durP2;ratioP2;P2;SDS_P1;SDS_P2;PMS_P1;PMS_P2;Temp;Humidity;BMP_temperature;BMP_pressure;BME280_temperature;BME280_humidity;BME280_pressure;Samples;Min_cycle;Max_cycle;Signal;HPM_P1;HPM_P2
2023/05/31 00:01:23;;;;;;;12.32;7.38;;;;;;;13.62;83.81;102188.59;4962178;28;20489;-71
2023/05/31 00:03:49;;;;;;;13.25;6.95;;;;;;;13.59;84.15;102194.06;4963369;28;20047;-72
2023/05/31 00:06:15;;;;;;;12.40;7.32;;;;;;;13.52;84.49;102192.97;4964957;28;20046;-72
2023/05/31 00:08:40;;;;;;;11.68;7.68;;;;;;;13.52;84.54;102196.41;4970320;28;20134;-72
2023/05/31 00:11:07;;;;;;;11.65;7.32;;;;;;;13.53;84.55;102192.03;4961638;28;20033;-71
2023/05/31 00:13:32;;;;;;;16.27;9.23;;;;;;;13.50;84.66;102190.50;4960179;28;20050;-72
2023/05/31 00:15:58;;;;;;;15.18;7.30;;;;;;;13.47;85.00;102192.56;4946552;28;20030;-74
2023/05/31 00:18:23;;;;;;;17.05;7.95;;;;;;;13.40;85.53;102187.13;4959621;28;20138;-72
2023/05/31 00:20:49;;;;;;;18.42;8.32;;;;;;;13.34;85.73;102185.09;4960063;28;20070;-72
2023/05/31 00:23:15;;;;;;;18.15;8.20;;;;;;;13.40;85.40;102189.72;4973610;28;20556;-72
2023/05/31 00:25:41;;;;;;;14.77;7.72;;;;;;;13.41;85.93;102178.31;4944187;28;20039;-72
2023/05/31 00:28:06;;;;;;;14.15;8.00;;;;;;;13.25;86.34;102184.91;4942229;28;20046;-72
2023/05/31 00:30:32;;;;;;;13.73;7.40;;;;;;;13.18;86.99;102178.63;4961164;28;20420;-72
2023/05/31 00:32:57;;;;;;;16.67;8.80;;;;;;;13.26;86.54;102180.56;4959642;28;20043;-72
2023/05/31 00:35:23;;;;;;;17.73;8.80;;;;;;;13.23;86.70;102176.41;4958327;28;20042;-72
2023/05/31 00:37:48;;;;;;;14.07;8.60;;;;;;;13.27;86.73;102183.97;4976695;28;20035;-72
2023/05/31 00:40:14;;;;;;;18.58;9.32;;;;;;;13.23;86.75;102178.22;4975846;28;20575;-72
2023/05/31 00:42:39;;;;;;;14.75;7.80;;;;;;;13.20;86.89;102178.47;4958166;28;20063;-72
2023/05/31 00:45:06;;;;;;;16.63;9.45;;;;;;;13.20;87.10;102183.69;4960478;28;20039;-72
2023/05/31 00:47:32;;;;;;;14.95;8.43;;;;;;;13.15;87.33;102184.13;4961752;28;20354;-72
2023/05/31 00:49:58;;;;;;;16.13;8.10;;;;;;;13.13;87.34;102187.81;4960557;28;20054;-72
2023/05/31 00:52:25;;;;;;;16.17;7.85;;;;;;;13.13;87.49;102187.81;4980261;28;20513;-71
2023/05/31 00:54:51;;;;;;;15.15;9.13;;;;;;;13.11;87.50;102190.56;4961627;28;20105;-72
2023/05/31 00:57:16;;;;;;;15.07;8.25;;;;;;;13.08;87.65;102190.84;4976969;28;20525;-72
2023/05/31 00:59:42;;;;;;;18.15;8.82;;;;;;;13.07;87.68;102185.78;4961300;28;20280;-72
2023/05/31 01:02:10;;;;;;;14.40;8.10;;;;;;;13.06;87.90;102187.56;4944521;28;20283;-72
2023/05/31 01:04:36;;;;;;;15.98;8.60;;;;;;;13.04;87.84;102179.06;4961596;28;20046;-72
2023/05/31 01:07:01;;;;;;;12.93;7.95;;;;;;;13.01;87.87;102190.56;4963055;28;20121;-72
2023/05/31 01:09:30;;;;;;;17.70;9.07;;;;;;;13.01;88.20;102187.94;4977082;28;20139;-72
2023/05/31 01:12:08;;;;;;;16.00;8.48;;;;;;;13.01;87.97;102190.56;4958696;28;20043;-71
2023/05/31 01:15:03;;;;;;;14.95;7.88;;;;;;;13.00;88.24;102191.53;4977295;28;20516;-71
2023/05/31 01:17:46;;;;;;;17.92;9.25;;;;;;;12.99;88.33;102191.66;4956157;28;20077;-71
2023/05/31 01:20:17;;;;;;;16.60;8.38;;;;;;;12.97;88.69;102193.59;4962043;28;20050;-71
2023/05/31 01:22:56;;;;;;;14.05;7.70;;;;;;;12.89;88.76;102191.69;4961228;28;20049;-71
2023/05/31 01:25:41;;;;;;;20.35;9.25;;;;;;;12.87;89.02;102191.00;4976936;28;20043;-71
2023/05/31 01:28:10;;;;;;;15.95;8.43;;;;;;;12.87;88.84;102192.78;4977202;28;20027;-72
2023/05/31 01:30:39;;;;;;;17.73;7.97;;;;;;;12.86;88.89;102191.94;4958560;28;20038;-72
2023/05/31 01:33:12;;;;;;;15.85;8.68;;;;;;;12.83;88.91;102184.44;4960044;28;20501;-71
2023/05/31 01:35:37;;;;;;;13.25;8.50;;;;;;;12.81;89.00;102191.56;4964732;28;20045;-71
2023/05/31 01:38:04;;;;;;;17.80;8.55;;;;;;;12.81;88.98;102181.13;4960063;28;20084;-71
2023/05/31 01:40:31;;;;;;;20.33;10.05;;;;;;;12.80;89.46;102184.69;4960766;28;20027;-71
2023/05/31 01:42:59;;;;;;;14.82;8.82;;;;;;;12.68;89.83;102181.41;4959544;28;20122;-71
2023/05/31 01:45:26;;;;;;;15.40;8.65;;;;;;;12.66;90.08;102188.53;4960219;28;20035;-71
2023/05/31 01:47:56;;;;;;;19.95;9.70;;;;;;;12.63;90.23;102189.59;4976361;28;20027;-71
2023/05/31 01:50:23;;;;;;;19.70;9.77;;;;;;;12.61;90.53;102193.31;4975721;28;20070;-71
2023/05/31 01:52:48;;;;;;;14.15;9.07;;;;;;;12.55;90.60;102186.88;4959403;28;20027;-72
2023/05/31 01:55:14;;;;;;;17.55;9.10;;;;;;;12.51;91.08;102182.91;4961718;28;20026;-71
2023/05/31 01:57:42;;;;;;;14.75;8.68;;;;;;;12.45;91.47;102184.25;4976970;28;20042;-71
2023/05/31 02:00:12;;;;;;;13.73;9.05;;;;;;;12.44;91.71;102185.19;4976352;28;20408;-71
2023/05/31 02:02:44;;;;;;;18.47;10.07;;;;;;;12.47;91.60;102176.31;4960348;28;20046;-71
2023/05/31 02:05:11;;;;;;;15.30;8.63;;;;;;;12.43;91.71;102178.38;4962062;28;20581;-71
2023/05/31 02:07:44;;;;;;;15.57;7.55;;;;;;;12.41;91.97;102177.69;4966164;28;20026;-71
2023/05/31 02:10:10;;;;;;;;;;;;;;;12.38;92.10;102171.91;4963770;28;20605;-71
2023/05/31 02:12:38;;;;;;;19.67;8.48;;;;;;;12.36;92.10;102169.44;4961098;28;19985;-71
2023/05/31 02:15:10;;;;;;;22.65;9.93;;;;;;;12.34;92.43;102173.13;4960868;28;20421;-71
2023/05/31 02:17:43;;;;;;;15.80;8.90;;;;;;;12.30;92.43;102176.94;4957974;28;20579;-71
2023/05/31 02:20:10;;;;;;;16.73;9.80;;;;;;;12.27;92.60;102170.25;4956067;28;20039;-71
2023/05/31 02:22:35;;;;;;;20.83;9.45;;;;;;;12.26;92.64;102185.03;4956653;28;20046;-72
2023/05/31 02:25:02;;;;;;;24.33;10.05;;;;;;;12.29;92.81;102185.72;4956376;28;20086;-72
2023/05/31 02:27:29;;;;;;;22.17;10.20;;;;;;;12.19;93.38;102173.53;4974974;28;20074;-72
2023/05/31 02:29:54;;;;;;;17.17;8.85;;;;;;;12.13;93.61;102176.66;4959539;28;20042;-71
2023/05/31 02:32:19;;;;;;;15.93;8.52;;;;;;;12.13;93.93;102179.25;4959608;28;20030;-71
2023/05/31 02:34:45;;;;;;;17.23;9.60;;;;;;;12.13;93.68;102181.84;4960455;28;20058;-71
2023/05/31 02:37:11;;;;;;;18.77;9.23;;;;;;;12.13;93.85;102181.84;4960656;28;20527;-71
2023/05/31 02:39:37;;;;;;;16.73;9.85;;;;;;;12.17;93.58;102188.44;4975485;28;20049;-71
2023/05/31 02:42:02;;;;;;;17.58;8.73;;;;;;;12.14;93.53;102185.28;4960976;28;20034;-72
2023/05/31 02:44:28;;;;;;;18.83;9.40;;;;;;;12.12;93.88;102185.41;4974809;28;20093;-72
2023/05/31 02:46:54;;;;;;;16.65;8.88;;;;;;;12.11;93.85;102183.78;4958185;28;20027;-72
2023/05/31 02:49:20;;;;;;;14.88;8.68;;;;;;;12.11;94.01;102186.38;4975224;28;20046;-78
2023/05/31 02:51:46;;;;;;;14.60;8.38;;;;;;;12.06;94.09;102185.94;4959428;28;20501;-72
2023/05/31 02:54:29;;;;;;;16.08;8.65;;;;;;;12.04;94.16;102187.84;4960416;28;20054;-72
2023/05/31 02:56:56;;;;;;;17.00;8.85;;;;;;;12.00;93.74;102178.66;4955559;28;20027;-72
2023/05/31 02:59:23;;;;;;;17.33;9.45;;;;;;;11.93;93.94;102183.56;4956143;28;20039;-72
2023/05/31 03:01:59;;;;;;;15.32;9.25;;;;;;;11.90;93.66;102178.63;4940454;28;20723;-72
2023/05/31 03:04:25;;;;;;;14.68;9.63;;;;;;;11.86;93.88;102172.81;4953801;28;20646;-72
2023/05/31 03:06:52;;;;;;;16.10;9.65;;;;;;;11.83;93.84;102173.09;4959894;28;20031;-71
2023/05/31 03:09:18;;;;;;;16.65;9.98;;;;;;;11.82;93.70;102183.63;4946763;28;20434;-72
2023/05/31 03:11:45;;;;;;;15.48;8.65;;;;;;;11.81;93.30;102180.22;4940573;28;20035;-71
2023/05/31 03:14:11;;;;;;;15.10;8.40;;;;;;;11.82;92.88;102181.03;4963780;28;20361;-72
2023/05/31 03:16:52;;;;;;;14.95;8.65;;;;;;;11.78;93.35;102180.47;4976026;28;20027;-72
2023/05/31 03:19:18;;;;;;;15.32;9.23;;;;;;;11.73;93.20;102184.41;4959434;28;20421;-72
2023/05/31 03:21:47;;;;;;;14.80;8.55;;;;;;;11.66;93.94;102178.91;4977755;28;20059;-72
2023/05/31 03:24:13;;;;;;;14.82;9.15;;;;;;;11.60;93.84;102169.84;4962576;28;20060;-72
2023/05/31 03:26:38;;;;;;;18.05;9.00;;;;;;;11.58;94.27;102173.53;4956363;28;20122;-71
2023/05/31 03:29:04;;;;;;;18.73;9.02;;;;;;;11.56;94.57;102176.25;4967151;28;20497;-72
2023/05/31 03:31:29;;;;;;;15.85;9.55;;;;;;;11.54;94.45;102172.94;4960730;28;20027;-72
2023/05/31 03:33:56;;;;;;;14.48;9.18;;;;;;;11.54;94.64;102172.13;4978232;28;20432;-72
2023/05/31 03:36:22;;;;;;;14.13;8.65;;;;;;;11.54;94.58;102169.53;4962465;28;20332;-72
2023/05/31 03:38:47;;;;;;;16.35;8.55;;;;;;;11.54;94.14;102166.94;4959453;28;20078;-72
2023/05/31 03:41:14;;;;;;;15.85;8.63;;;;;;;11.54;94.06;102170.34;4975102;28;20030;-72
2023/05/31 03:43:40;;;;;;;14.95;9.18;;;;;;;11.55;93.72;102169.41;4975781;28;20049;-72
2023/05/31 03:46:05;;;;;;;16.25;9.07;;;;;;;11.51;93.79;102165.44;4976211;28;20050;-72
2023/05/31 03:48:31;;;;;;;17.60;8.90;;;;;;;11.50;94.32;102166.38;4976582;28;20058;-72
2023/05/31 03:50:56;;;;;;;16.67;9.25;;;;;;;11.49;94.47;102162.97;4979461;28;20034;-72
2023/05/31 03:53:22;;;;;;;20.13;9.63;;;;;;;11.50;94.25;102164.59;4980219;28;20058;-72
2023/05/31 03:55:48;;;;;;;16.13;8.25;;;;;;;11.50;94.58;102166.38;4963189;28;20254;-72
2023/05/31 03:58:13;;;;;;;15.68;9.05;;;;;;;11.50;94.44;102167.19;4946945;28;20062;-72
2023/05/31 04:00:41;;;;;;;13.65;8.32;;;;;;;11.51;94.50;102165.44;4980961;28;20030;-72
2023/05/31 04:03:07;;;;;;;17.02;8.50;;;;;;;11.49;94.62;102167.34;4978089;28;20477;-72
2023/05/31 04:05:35;;;;;;;18.58;9.45;;;;;;;11.44;95.47;102159.91;4962409;28;20291;-71
2023/05/31 04:08:01;;;;;;;15.35;9.50;;;;;;;11.40;95.49;102163.72;4979132;28;20022;-72
2023/05/31 04:10:29;;;;;;;17.63;10.05;;;;;;;11.37;95.87;102168.34;4962370;28;20062;-71
2023/05/31 04:12:55;;;;;;;16.17;9.55;;;;;;;11.36;96.83;102172.72;4961331;28;20515;-71
2023/05/31 04:15:21;;;;;;;19.33;10.25;;;;;;;11.35;97.13;102168.47;4979173;28;20050;-71
2023/05/31 04:17:47;;;;;;;16.05;9.68;;;;;;;11.37;97.52;102168.34;4978259;28;20219;-71
2023/05/31 04:20:13;;;;;;;18.48;9.50;;;;;;;11.39;97.46;102172.47;4947697;28;20050;-71
2023/05/31 04:22:39;;;;;;;16.80;9.32;;;;;;;11.41;97.52;102173.16;4963569;28;20445;-72
2023/05/31 04:25:05;;;;;;;16.38;9.75;;;;;;;11.45;97.09;102173.72;4978924;28;20038;-72
2023/05/31 04:27:38;;;;;;;13.57;8.82;;;;;;;11.47;96.98;102175.25;4962940;28;20374;-71
2023/05/31 04:30:05;;;;;;;18.65;10.70;;;;;;;11.49;97.43;102178.53;4961991;28;20181;-72
2023/05/31 04:32:34;;;;;;;17.38;9.27;;;;;;;11.53;97.17;102178.28;4963546;28;20030;-72
2023/05/31 04:35:04;;;;;;;17.73;8.88;;;;;;;11.55;97.11;102192.78;4961040;28;20644;-72
2023/05/31 04:37:32;;;;;;;17.67;10.43;;;;;;;11.59;97.43;102177.78;4964076;28;20118;-72
2023/05/31 04:40:00;;;;;;;19.15;10.30;;;;;;;11.62;97.94;102172.31;4960339;28;20050;-72
2023/05/31 04:42:28;;;;;;;19.33;10.57;;;;;;;11.65;97.96;102172.88;4961786;28;20058;-72
2023/05/31 04:44:57;;;;;;;18.73;9.95;;;;;;;11.70;98.17;102172.50;4978128;28;20089;-72
2023/05/31 04:47:27;;;;;;;18.20;9.80;;;;;;;11.74;98.60;102176.47;4959256;28;20097;-72
2023/05/31 04:49:56;;;;;;;16.70;9.85;;;;;;;11.79;98.58;102176.06;4977588;28;20043;-72
2023/05/31 04:52:31;;;;;;;19.88;10.50;;;;;;;11.86;98.57;102177.19;4977063;28;20039;-72
2023/05/31 04:54:58;;;;;;;17.80;10.10;;;;;;;11.90;98.69;102170.00;4977005;28;20038;-72
2023/05/31 04:57:29;;;;;;;19.60;10.10;;;;;;;11.94;98.68;102173.97;4978890;28;20465;-71
2023/05/31 04:59:57;;;;;;;14.55;9.18;;;;;;;12.00;99.14;102173.47;4976093;28;20372;-71
2023/05/31 05:02:23;;;;;;;14.93;9.20;;;;;;;12.06;98.87;102172.94;4978121;28;20031;-72
2023/05/31 05:04:50;;;;;;;18.67;8.98;;;;;;;12.12;98.87;102168.97;4979185;28;20050;-72
2023/05/31 05:07:16;;;;;;;17.80;9.10;;;;;;;12.18;98.44;102173.66;4978049;28;20034;-71
2023/05/31 05:09:42;;;;;;;15.38;9.60;;;;;;;12.26;98.00;102174.63;4946813;28;20061;-71
2023/05/31 05:12:09;;;;;;;17.67;9.65;;;;;;;12.36;97.59;102179.03;4959753;28;20032;-72
2023/05/31 05:14:39;;;;;;;15.30;9.23;;;;;;;12.45;97.60;102181.66;4960897;28;20089;-71
2023/05/31 05:17:06;;;;;;;22.83;10.52;;;;;;;12.56;97.75;102180.69;4978004;28;20086;-72
2023/05/31 05:19:32;;;;;;;17.63;11.27;;;;;;;12.70;97.26;102178.66;4944697;28;20086;-72
2023/05/31 05:21:58;;;;;;;22.17;10.05;;;;;;;12.85;95.74;102179.91;4946455;28;20035;-72
2023/05/31 05:24:23;;;;;;;14.00;8.48;;;;;;;13.00;94.69;102177.69;4962312;28;20046;-72
2023/05/31 05:26:49;;;;;;;23.10;9.65;;;;;;;13.12;94.26;102173.16;4961002;28;20038;-72
2023/05/31 05:29:15;;;;;;;20.92;10.18;;;;;;;13.22;94.28;102181.75;4974835;28;20046;-72
2023/05/31 05:31:43;;;;;;;14.75;9.13;;;;;;;13.35;92.82;102181.50;4978195;28;20134;-72
2023/05/31 05:34:09;;;;;;;17.63;8.70;;;;;;;13.46;92.36;102183.94;4975123;28;20051;-72
2023/05/31 05:36:36;;;;;;;21.80;9.25;;;;;;;13.56;90.83;102192.56;4962553;28;20193;-72
2023/05/31 05:39:03;;;;;;;21.70;10.02;;;;;;;13.67;90.89;102185.53;4959012;28;20134;-72
2023/05/31 05:41:30;;;;;;;16.75;8.70;;;;;;;13.83;89.84;102186.56;4944266;28;20042;-72
2023/05/31 05:43:56;;;;;;;19.50;8.95;;;;;;;13.99;88.48;102190.34;4959909;28;20035;-72
2023/05/31 05:46:22;;;;;;;23.23;10.27;;;;;;;14.11;87.22;102185.75;4978717;28;20097;-72
2023/05/31 05:48:47;;;;;;;15.70;8.45;;;;;;;14.30;86.75;102190.06;4975840;28;20053;-71
2023/05/31 05:51:16;;;;;;;16.65;8.43;;;;;;;14.52;86.57;102186.19;4975880;28;20037;-72
2023/05/31 05:53:42;;;;;;;18.40;8.38;;;;;;;14.73;85.21;102186.75;4947569;28;20046;-71
2023/05/31 05:56:08;;;;;;;18.77;9.20;;;;;;;14.87;84.01;102188.00;4957771;28;20543;-71
2023/05/31 05:58:46;;;;;;;16.40;8.48;;;;;;;14.85;81.95;102191.75;4960259;28;20042;-72
2023/05/31 06:01:30;;;;;;;13.13;8.15;;;;;;;14.89;81.65;102195.69;4963747;28;20101;-71
2023/05/31 06:03:57;;;;;;;13.13;7.25;;;;;;;15.14;82.69;102200.16;4975602;28;20105;-72
2023/05/31 06:06:23;;;;;;;17.30;7.75;;;;;;;15.28;80.98;102182.28;4959033;28;20224;-71
2023/05/31 06:08:48;;;;;;;15.82;8.02;;;;;;;15.50;80.22;102183.53;4975266;28;20061;-72
2023/05/31 06:11:18;;;;;;;13.57;8.18;;;;;;;15.71;78.79;102177.94;4975274;28;20118;-71
2023/05/31 06:13:44;;;;;;;24.85;9.35;;;;;;;15.78;77.28;102171.13;4957742;28;20498;-71
2023/05/31 06:16:13;;;;;;;21.00;7.40;;;;;;;15.94;76.20;102171.19;4941651;28;20027;-71
2023/05/31 06:18:39;;;;;;;13.57;6.43;;;;;;;16.16;76.15;102171.56;4950741;28;20537;-72
2023/05/31 06:21:04;;;;;;;16.40;6.95;;;;;;;16.23;74.70;102183.03;4958243;28;20045;-72
2023/05/31 06:23:31;;;;;;;14.38;7.15;;;;;;;16.30;74.51;102173.59;4959168;28;20145;-72
2023/05/31 06:25:56;;;;;;;15.10;7.20;;;;;;;16.44;74.22;102176.53;4978873;28;20493;-71
2023/05/31 06:28:22;;;;;;;13.98;6.57;;;;;;;16.64;73.02;102169.22;4974738;28;20042;-72
2023/05/31 06:30:51;;;;;;;19.83;7.03;;;;;;;16.83;72.50;102182.00;4974385;28;20069;-72
2023/05/31 06:33:17;;;;;;;13.82;6.47;;;;;;;16.85;70.98;102180.03;4958064;28;20046;-72
2023/05/31 06:35:44;;;;;;;13.73;6.32;;;;;;;17.11;71.46;102177.25;4958018;28;20031;-72
2023/05/31 06:38:15;;;;;;;17.27;6.90;;;;;;;17.48;70.18;102169.81;4954843;28;20043;-72
2023/05/31 06:40:43;;;;;;;15.05;6.10;;;;;;;17.87;69.64;102169.84;4957442;28;20054;-72
2023/05/31 06:43:10;;;;;;;12.13;5.50;;;;;;;17.94;67.23;102174.41;4938449;28;20051;-73
2023/05/31 06:46:13;;;;;;;11.98;6.55;;;;;;;18.05;66.52;102174.84;4938273;28;20027;-72
2023/05/31 06:48:57;;;;;;;16.02;7.38;;;;;;;18.33;64.89;102166.50;4937447;28;20058;-72
2023/05/31 06:51:43;;;;;;;15.52;5.35;;;;;;;18.60;63.61;102162.50;4938183;28;20078;-72
2023/05/31 06:54:27;;;;;;;11.35;5.63;;;;;;;18.86;63.41;102172.66;4948351;28;20438;-72
2023/05/31 06:56:54;;;;;;;14.75;6.20;;;;;;;18.52;62.28;102167.03;4957568;28;20034;-72
2023/05/31 06:59:20;;;;;;;12.07;5.60;;;;;;;18.95;62.23;102175.22;4957880;28;20092;-72
2023/05/31 07:01:46;;;;;;;13.18;6.63;;;;;;;18.99;61.82;102169.44;4975809;28;20429;-72
2023/05/31 07:04:12;;;;;;;11.40;5.13;;;;;;;19.31;60.41;102169.28;4975087;28;20058;-72
2023/05/31 07:06:38;;;;;;;11.40;5.70;;;;;;;19.25;60.27;102173.47;4957810;28;20043;-72
2023/05/31 07:09:04;;;;;;;11.80;5.40;;;;;;;19.62;59.10;102172.53;4957617;28;20062;-73
2023/05/31 07:11:33;;;;;;;14.25;4.85;;;;;;;20.03;58.61;102172.06;4976853;28;20448;-72
2023/05/31 07:14:01;;;;;;;17.88;6.90;;;;;;;20.22;56.47;102165.38;4960812;28;20062;-72
2023/05/31 07:16:28;;;;;;;16.60;5.80;;;;;;;20.64;56.34;102165.56;4958483;28;20711;-72
2023/05/31 07:18:56;;;;;;;13.63;6.05;;;;;;;21.05;54.82;102164.06;4939240;28;20078;-72
2023/05/31 07:21:22;;;;;;;14.57;6.25;;;;;;;21.33;53.31;102164.03;4958350;28;20031;-72
2023/05/31 07:23:48;;;;;;;12.93;5.40;;;;;;;21.30;51.84;102159.94;4961994;28;20049;-72
2023/05/31 07:26:15;;;;;;;12.52;6.15;;;;;;;21.11;52.22;102174.66;4965769;28;20039;-73
2023/05/31 07:28:45;;;;;;;10.60;4.72;;;;;;;20.82;53.42;102159.84;4961718;28;20561;-72
2023/05/31 07:31:15;;;;;;;15.38;5.05;;;;;;;21.09;53.44;102163.47;4961905;28;20078;-72
2023/05/31 07:33:41;;;;;;;17.50;5.63;;;;;;;21.65;52.46;102159.94;4977741;28;20082;-72
2023/05/31 07:36:06;;;;;;;15.68;5.07;;;;;;;21.84;51.05;102150.47;4980529;28;20417;-72
2023/05/31 07:38:32;;;;;;;12.45;5.70;;;;;;;21.98;49.73;102148.69;4973307;28;20082;-73
2023/05/31 07:40:58;;;;;;;14.95;5.60;;;;;;;21.89;50.53;102149.91;4944029;28;20073;-72
2023/05/31 07:43:23;;;;;;;11.40;5.07;;;;;;;22.28;49.43;102146.56;4948613;28;20449;-73
2023/05/31 07:45:50;;;;;;;9.05;4.40;;;;;;;22.56;49.11;102148.19;4962006;28;20038;-72
2023/05/31 07:48:17;;;;;;;9.48;5.28;;;;;;;21.93;50.21;102151.13;4959498;28;20679;-72
2023/05/31 07:50:42;;;;;;;11.88;5.35;;;;;;;21.80;50.31;102151.88;4942883;28;20717;-73
2023/05/31 07:53:08;;;;;;;16.75;5.93;;;;;;;22.17;49.31;102147.94;4941478;28;20051;-73
2023/05/31 07:55:33;;;;;;;12.05;5.57;;;;;;;22.61;48.33;102152.88;4940942;28;20035;-73
2023/05/31 07:57:59;;;;;;;11.55;5.18;;;;;;;22.94;48.89;102148.38;4940267;28;20024;-73
2023/05/31 08:00:25;;;;;;;10.75;5.18;;;;;;;23.31;47.19;102148.69;4958569;28;20440;-72
2023/05/31 08:02:50;;;;;;;13.20;4.97;;;;;;;23.48;47.11;102143.75;4979048;28;21296;-73
2023/05/31 08:05:16;;;;;;;13.70;4.90;;;;;;;23.21;46.11;102140.41;4979749;28;20034;-72
2023/05/31 08:07:41;;;;;;;8.90;4.20;;;;;;;23.95;45.67;102140.09;4964649;28;20030;-72
2023/05/31 08:10:07;;;;;;;13.07;4.47;;;;;;;23.66;45.19;102136.97;4960427;28;20410;-73
2023/05/31 08:12:33;;;;;;;9.52;4.53;;;;;;;23.47;43.99;102134.19;4960571;28;20042;-73
2023/05/31 08:14:58;;;;;;;9.48;4.45;;;;;;;23.25;45.42;102128.38;4962174;28;20292;-73
2023/05/31 08:17:24;;;;;;;11.52;4.90;;;;;;;23.85;46.63;102128.13;4960130;28;20492;-72
2023/05/31 08:19:50;;;;;;;10.55;4.85;;;;;;;24.18;45.17;102121.81;4960669;28;20069;-72
2023/05/31 08:22:15;;;;;;;17.60;6.55;;;;;;;23.94;45.19;102122.56;4976565;28;20039;-72
2023/05/31 08:24:41;;;;;;;13.05;5.22;;;;;;;23.47;44.53;102120.13;4962661;28;20501;-72
2023/05/31 08:27:06;;;;;;;12.70;4.55;;;;;;;23.33;44.43;102124.69;4960870;28;20398;-72
2023/05/31 08:29:33;;;;;;;11.52;4.78;;;;;;;23.85;45.73;102112.25;4950339;28;20109;-72
2023/05/31 08:31:59;;;;;;;9.00;5.05;;;;;;;23.25;46.08;102112.50;4951470;28;20042;-72
2023/05/31 08:34:24;;;;;;;13.63;4.57;;;;;;;23.67;45.22;102112.91;4957317;28;20058;-72
2023/05/31 08:36:50;;;;;;;8.98;4.82;;;;;;;23.41;44.93;102113.84;4962448;28;20046;-72
2023/05/31 08:39:15;;;;;;;10.10;3.60;;;;;;;23.93;44.53;102107.72;4952286;28;20054;-72
2023/05/31 08:42:03;;;;;;;12.18;4.43;;;;;;;24.30;44.33;102114.00;4959467;28;20283;-72
2023/05/31 08:44:29;;;;;;;15.30;3.90;;;;;;;24.47;42.98;102107.09;4958009;28;20055;-72
2023/05/31 08:47:07;;;;;;;6.68;3.00;;;;;;;24.85;41.87;102108.00;4933673;28;20042;-72
2023/05/31 08:49:34;;;;;;;12.82;3.80;;;;;;;25.34;42.25;102111.56;4950835;28;20042;-72
2023/05/31 08:51:59;;;;;;;12.23;4.18;;;;;;;25.68;42.83;102106.63;4942611;28;20049;-72
2023/05/31 08:54:26;;;;;;;11.68;4.85;;;;;;;25.75;40.93;102109.16;4956022;28;20409;-72
2023/05/31 08:56:52;;;;;;;13.50;3.63;;;;;;;25.41;41.25;102106.97;4965199;28;20034;-72
2023/05/31 08:59:19;;;;;;;9.85;3.80;;;;;;;25.53;40.19;102100.91;4958219;28;20580;-72
2023/05/31 09:01:46;;;;;;;8.63;3.38;;;;;;;25.56;40.42;102098.63;4958731;28;20035;-72
2023/05/31 09:04:14;;;;;;;8.70;4.13;;;;;;;25.94;38.63;102094.84;4949220;28;20051;-73
2023/05/31 09:06:39;;;;;;;10.88;3.10;;;;;;;25.86;39.98;102102.28;4941400;29;20047;-73
2023/05/31 09:09:08;;;;;;;12.60;3.72;;;;;;;25.72;39.81;102099.03;4945573;28;20080;-72
2023/05/31 09:11:40;;;;;;;9.60;3.40;;;;;;;25.49;38.30;102095.25;4938022;29;20033;-72
2023/05/31 09:14:08;;;;;;;10.60;3.67;;;;;;;25.56;39.54;102093.31;4965591;28;20066;-72
2023/05/31 09:16:35;;;;;;;10.65;3.97;;;;;;;25.68;39.50;102095.19;4960526;28;20078;-73
2023/05/31 09:19:03;;;;;;;10.90;3.65;;;;;;;25.73;40.25;102084.69;4951869;28;20059;-73
2023/05/31 09:21:29;;;;;;;12.65;3.42;;;;;;;25.95;39.27;102090.31;4940537;29;20889;-73
2023/05/31 09:23:56;;;;;;;10.32;3.72;;;;;;;25.69;38.94;102086.19;4947074;28;20055;-73
2023/05/31 09:26:23;;;;;;;12.45;2.60;;;;;;;25.55;38.82;102081.06;4939742;28;20043;-72
2023/05/31 09:28:52;;;;;;;6.55;3.28;;;;;;;25.82;38.54;102070.03;4949312;28;20135;-72
2023/05/31 09:31:18;;;;;;;11.07;2.83;;;;;;;26.27;39.50;102066.09;4960703;28;20027;-71
2023/05/31 09:33:47;;;;;;;7.60;2.92;;;;;;;26.54;38.75;102064.59;4971707;28;20409;-72
2023/05/31 09:36:13;;;;;;;5.07;2.40;;;;;;;26.76;37.36;102051.50;4960357;28;20386;-72
2023/05/31 09:38:39;;;;;;;6.55;2.55;;;;;;;26.85;36.48;102065.25;4953531;28;20620;-72
2023/05/31 09:41:20;;;;;;;9.70;2.85;;;;;;;26.45;38.09;102066.00;4940907;28;20477;-73
2023/05/31 09:43:48;;;;;;;6.13;2.45;;;;;;;26.87;35.28;102051.72;4947392;28;20138;-72
2023/05/31 09:46:19;;;;;;;7.85;3.45;;;;;;;26.60;35.58;102047.72;4974172;28;20413;-72
2023/05/31 09:48:57;;;;;;;9.75;3.22;;;;;;;26.71;35.92;102055.91;4960724;28;20058;-72
2023/05/31 09:51:22;;;;;;;6.72;2.35;;;;;;;26.49;34.77;102059.16;4960533;28;20042;-73
2023/05/31 09:53:51;;;;;;;8.68;3.25;;;;;;;26.29;35.77;102050.72;4959301;28;20042;-72
2023/05/31 09:56:21;;;;;;;8.70;2.78;;;;;;;26.49;34.48;102045.88;4975056;28;20508;-73
2023/05/31 09:58:48;;;;;;;12.82;2.88;;;;;;;26.73;34.64;102045.84;4973935;28;20645;-74
2023/05/31 10:01:15;;;;;;;16.30;2.20;;;;;;;26.80;32.85;102041.22;4960652;28;20034;-73
2023/05/31 10:03:42;;;;;;;5.68;2.28;;;;;;;27.10;32.90;102042.88;4961033;28;20105;-74
2023/05/31 10:06:08;;;;;;;8.25;3.03;;;;;;;26.63;32.80;102043.78;4972555;28;20033;-73
2023/05/31 10:08:34;;;;;;;9.50;2.38;;;;;;;26.69;33.36;102037.56;4960890;28;20051;-73
2023/05/31 10:11:01;;;;;;;5.18;2.22;;;;;;;26.84;32.11;102036.22;4961049;28;20062;-73
2023/05/31 10:13:28;;;;;;;7.00;3.45;;;;;;;26.66;33.00;102029.22;4959786;28;20399;-73
2023/05/31 10:15:56;;;;;;;9.80;1.90;;;;;;;26.76;31.67;102026.78;4975201;28;20027;-74
2023/05/31 10:18:27;;;;;;;5.60;1.90;;;;;;;26.98;31.37;102030.41;4960623;28;20791;-73
2023/05/31 10:20:59;;;;;;;6.72;1.67;;;;;;;27.14;32.27;102022.72;4973002;28;20105;-74
2023/05/31 10:23:26;;;;;;;6.53;2.33;;;;;;;26.96;30.61;102026.38;4952224;28;20050;-73
2023/05/31 10:25:58;;;;;;;7.00;1.75;;;;;;;26.92;31.24;102014.59;4974170;28;20046;-74
2023/05/31 10:28:27;;;;;;;5.65;1.90;;;;;;;26.72;30.46;102021.09;4960243;28;20051;-73
2023/05/31 10:30:54;;;;;;;8.48;1.95;;;;;;;26.81;30.88;102021.56;4978319;28;20492;-72
2023/05/31 10:33:20;;;;;;;4.35;1.52;;;;;;;26.50;30.97;102020.88;4955001;28;20043;-72
2023/05/31 10:35:46;;;;;;;4.82;2.17;;;;;;;26.28;32.17;102022.53;4941851;28;20468;-73
2023/05/31 10:38:13;;;;;;;5.22;2.40;;;;;;;26.02;30.72;102012.13;4940904;28;20043;-73
2023/05/31 10:40:55;;;;;;;6.82;3.15;;;;;;;25.81;32.61;102013.47;4953320;28;20244;-73
2023/05/31 10:43:24;;;;;;;8.07;2.08;;;;;;;26.23;32.26;102004.63;4942351;28;20531;-72
2023/05/31 10:46:00;;;;;;;6.75;2.03;;;;;;;26.49;33.20;101994.53;4979053;28;20042;-73
2023/05/31 10:48:26;;;;;;;7.47;2.60;;;;;;;26.74;32.12;102004.91;4962425;28;20386;-73
2023/05/31 10:50:53;;;;;;;7.68;2.22;;;;;;;26.06;30.65;102007.16;4958844;28;20201;-73
2023/05/31 10:53:18;;;;;;;6.55;1.92;;;;;;;26.05;32.04;102002.91;4958882;28;20047;-73
2023/05/31 10:55:47;;;;;;;5.63;2.30;;;;;;;26.51;33.14;102000.44;4959123;28;20271;-73
2023/05/31 10:58:28;;;;;;;11.82;2.45;;;;;;;26.74;33.01;102000.41;4959658;28;20065;-78
2023/05/31 11:00:55;;;;;;;5.78;2.08;;;;;;;26.84;32.30;101999.78;4960979;28;20037;-74
2023/05/31 11:03:22;;;;;;;4.70;1.95;;;;;;;26.56;29.90;102005.84;4957879;28;20117;-74
2023/05/31 11:05:55;;;;;;;6.00;2.22;;;;;;;26.51;32.49;101995.91;4956204;28;20201;-74
2023/05/31 11:08:21;;;;;;;11.27;2.40;;;;;;;26.46;32.01;101993.16;4940571;28;20620;-74
2023/05/31 11:10:48;;;;;;;5.45;1.90;;;;;;;25.78;31.86;101999.81;4978130;28;20031;-74
2023/05/31 11:13:14;;;;;;;9.75;1.70;;;;;;;26.08;34.16;101997.09;4963865;28;20046;-74
2023/05/31 11:15:41;;;;;;;7.35;2.45;;;;;;;25.87;32.82;102016.25;4959116;28;20322;-75
2023/05/31 11:18:09;;;;;;;9.63;2.20;;;;;;;25.79;33.36;102002.25;4959052;28;20157;-74
2023/05/31 11:20:36;;;;;;;5.03;2.13;;;;;;;26.04;34.33;101998.63;4938487;28;20066;-73
2023/05/31 11:23:20;;;;;;;10.07;2.38;;;;;;;26.38;33.83;101989.00;4958738;28;20019;-74